SpainFixed distance
Traveserina Picos de Europa
5 Jun2021
Distance
46km
Finishers
335282 men53 women
Winning time
5:14:26h
Median pace
5.42km/h
Pace distribution
335 finishers · 4.06–8.78 km/h · mean 5.50
Every finisher ran the same 46 km course, so these paces are directly comparable.
Histogram of finisher pace. 335 finishers ranged from 4.06 to 8.78 kilometres per hour, with a mean of 5.50 and a median of 5.42. The busiest band is 4.5 to 5.0 kilometres per hour, with 78 finishers.
Results
Ranks 151–200 of 335
| Rank | Runner | Time | Pace | Cat. | Placing |
|---|---|---|---|---|---|
| 151 | A.D. SIN Fronteras | 8:22:42h | 5.49 | M23 | 137th M · 31st M23 |
| 152 | Engarmaos | 8:24:03h | 5.48 | M23 | 138th M · 32nd M23 |
| 153 | Grupo Covadonga | 8:24:11h | 5.47 | M40 | 139th M · 27th M40 |
| 154 | Avientu | 8:24:12h | 5.47 | M60 | 140th M · 1st M60 |
| 155 | Orixol M.T | 8:24:32h | 5.47 | M40 | 141st M · 28th M40 |
| 156 | Oxigeno | 8:25:27h | 5.46 | M45 | 142nd M · 16th M45 |
| 157 | Traileros Toxos&Birras | 8:26:16h | 5.45 | M40 | 143rd M · 29th M40 |
| 158 | Liebana- Kinetic | 8:26:47h | 5.45 | W23 | 15th F · 5th W23 |
| 159 | C.D. Relieve | 8:26:54h | 5.45 | — | 144th M |
| 160 | G.M. Cumbre Llangreu | 8:26:58h | 5.44 | MU23 | 145th M · 3rd MU23 |
| 161 | Arkial Peña Santa | 8:26:58h | 5.44 | MU23 | 145th M · 3rd MU23 |
| 162 | Avientu | 8:27:21h | 5.44 | — | 147th M |
| 163 | Lateral Sport Club | 8:27:29h | 5.44 | M23 | 148th M · 33rd M23 |
| 164 | G.M. Peña MEA | 8:28:04h | 5.43 | — | 149th M |
| 165 | A.D. SIN Fronteras | 8:29:03h | 5.42 | M50 | 150th M · 10th M50 |
| 166 | Güinners | 8:29:11h | 5.42 | M40 | 151st M · 30th M40 |
| 167 | G.M. Reino Astur Unive... | 8:29:14h | 5.42 | W60 | 16th F · 1st W60 |
| 168 | Güinners | 8:29:42h | 5.42 | M40 | 152nd M · 31st M40 |
| 169 | 8:30:03h | 5.41 | M40 | 153rd M · 32nd M40 | |
| 170 | G.M. Reino Astur Unive... | 8:30:11h | 5.41 | M35 | 154th M · 31st M35 |
| 171 | Aviva Sport Club | 8:30:21h | 5.41 | M45 | 155th M · 17th M45 |
| 172 | Cutrifera Trail Running | 8:30:32h | 5.41 | M23 | 156th M · 34th M23 |
| 173 | Oxigeno | 8:31:12h | 5.40 | — | 157th M |
| 174 | Wolves Born TO Run | 8:31:35h | 5.39 | M40 | 158th M · 33rd M40 |
| 175 | Razastur Xtreme | 8:31:59h | 5.39 | M23 | 159th M · 35th M23 |
| 176 | 8:32:15h | 5.39 | M40 | 160th M · 34th M40 | |
| 177 | 8:32:15h | 5.39 | M45 | 160th M · 18th M45 | |
| 178 | AD Nemus | 8:32:35h | 5.38 | W23 | 17th F · 6th W23 |
| 179 | Arkial Peña Santa | 8:32:41h | 5.38 | — | 162nd M |
| 180 | G.M la Patana | 8:33:49h | 5.37 | M35 | 163rd M · 32nd M35 |
| 181 | 8:33:59h | 5.37 | M40 | 164th M · 35th M40 | |
| 182 | Deportes ML Black | 8:34:07h | 5.37 | M50 | 165th M · 11th M50 |
| 183 | S.M. Centro Asturiano ... | 8:34:46h | 5.36 | M45 | 166th M · 19th M45 |
| 184 | Gmea-Trail | 8:36:57h | 5.34 | M45 | 167th M · 20th M45 |
| 185 | C.D. de Montaña Valdeón | 8:37:20h | 5.33 | M23 | 168th M · 36th M23 |
| 186 | G.M. Ensidesa Gijon | 8:43:16h | 5.28 | — | 169th M |
| 187 | G.M. Picu Pienzu | 8:46:31h | 5.24 | M50 | 170th M · 12th M50 |
| 188 | A.D. SIN Fronteras | 8:46:47h | 5.24 | W35 | 18th F · 4th W35 |
| 189 | 8:48:51h | 5.22 | W35 | 19th F · 5th W35 | |
| 190 | A.D. Moal | 8:49:11h | 5.22 | W35 | 20th F · 6th W35 |
| 191 | A.D. Moal | 8:51:31h | 5.19 | M23 | 171st M · 37th M23 |
| 192 | Centro Excursionista d... | 8:51:50h | 5.19 | M40 | 172nd M · 36th M40 |
| 193 | Skyrun Vallina | 8:51:57h | 5.19 | M23 | 173rd M · 38th M23 |
| 194 | 8:52:13h | 5.19 | M45 | 174th M · 21st M45 | |
| 195 | LOS Urrieles | 8:53:01h | 5.18 | M23 | 175th M · 39th M23 |
| 196 | Run04 Gijon | 8:53:03h | 5.18 | M55 | 176th M · 4th M55 |
| 197 | Astur Vertical | 8:53:20h | 5.17 | — | 177th M |
| 198 | Cutrifera Trail Running | 8:53:27h | 5.17 | M40 | 178th M · 37th M40 |
| 199 | 8:53:29h | 5.17 | M40 | 179th M · 38th M40 | |
| 200 | A.D. SIN Fronteras | 8:55:07h | 5.16 | M45 | 180th M · 22nd M45 |
- 151A.D. SIN Fronteras137th M · 31st M23Time8:22:42hPace5.49Cat.M23
- 152Engarmaos138th M · 32nd M23Time8:24:03hPace5.48Cat.M23
- 153Grupo Covadonga139th M · 27th M40Time8:24:11hPace5.47Cat.M40
- 154Avientu140th M · 1st M60Time8:24:12hPace5.47Cat.M60
- 155Orixol M.T141st M · 28th M40Time8:24:32hPace5.47Cat.M40
- 156Oxigeno142nd M · 16th M45Time8:25:27hPace5.46Cat.M45
- 157Traileros Toxos&Birras143rd M · 29th M40Time8:26:16hPace5.45Cat.M40
- 158Liebana- Kinetic15th F · 5th W23Time8:26:47hPace5.45Cat.W23
- 159C.D. Relieve144th MTime8:26:54hPace5.45
- 160G.M. Cumbre Llangreu145th M · 3rd MU23Time8:26:58hPace5.44Cat.MU23
- 161Arkial Peña Santa145th M · 3rd MU23Time8:26:58hPace5.44Cat.MU23
- 162Avientu147th MTime8:27:21hPace5.44
- 163Lateral Sport Club148th M · 33rd M23Time8:27:29hPace5.44Cat.M23
- 164G.M. Peña MEA149th MTime8:28:04hPace5.43
- 165A.D. SIN Fronteras150th M · 10th M50Time8:29:03hPace5.42Cat.M50
- 166Güinners151st M · 30th M40Time8:29:11hPace5.42Cat.M40
- 167G.M. Reino Astur Unive...16th F · 1st W60Time8:29:14hPace5.42Cat.W60
- 168Güinners152nd M · 31st M40Time8:29:42hPace5.42Cat.M40
- 169153rd M · 32nd M40Time8:30:03hPace5.41Cat.M40
- 170G.M. Reino Astur Unive...154th M · 31st M35Time8:30:11hPace5.41Cat.M35
- 171Aviva Sport Club155th M · 17th M45Time8:30:21hPace5.41Cat.M45
- 172Cutrifera Trail Running156th M · 34th M23Time8:30:32hPace5.41Cat.M23
- 173Oxigeno157th MTime8:31:12hPace5.40
- 174Wolves Born TO Run158th M · 33rd M40Time8:31:35hPace5.39Cat.M40
- 175Razastur Xtreme159th M · 35th M23Time8:31:59hPace5.39Cat.M23
- 176160th M · 34th M40Time8:32:15hPace5.39Cat.M40
- 177160th M · 18th M45Time8:32:15hPace5.39Cat.M45
- 178AD Nemus17th F · 6th W23Time8:32:35hPace5.38Cat.W23
- 179Arkial Peña Santa162nd MTime8:32:41hPace5.38
- 180G.M la Patana163rd M · 32nd M35Time8:33:49hPace5.37Cat.M35
- 181164th M · 35th M40Time8:33:59hPace5.37Cat.M40
- 182Deportes ML Black165th M · 11th M50Time8:34:07hPace5.37Cat.M50
- 183S.M. Centro Asturiano ...166th M · 19th M45Time8:34:46hPace5.36Cat.M45
- 184Gmea-Trail167th M · 20th M45Time8:36:57hPace5.34Cat.M45
- 185C.D. de Montaña Valdeón168th M · 36th M23Time8:37:20hPace5.33Cat.M23
- 186G.M. Ensidesa Gijon169th MTime8:43:16hPace5.28
- 187G.M. Picu Pienzu170th M · 12th M50Time8:46:31hPace5.24Cat.M50
- 188A.D. SIN Fronteras18th F · 4th W35Time8:46:47hPace5.24Cat.W35
- 18919th F · 5th W35Time8:48:51hPace5.22Cat.W35
- 190A.D. Moal20th F · 6th W35Time8:49:11hPace5.22Cat.W35
- 191A.D. Moal171st M · 37th M23Time8:51:31hPace5.19Cat.M23
- 192Centro Excursionista d...172nd M · 36th M40Time8:51:50hPace5.19Cat.M40
- 193Skyrun Vallina173rd M · 38th M23Time8:51:57hPace5.19Cat.M23
- 194174th M · 21st M45Time8:52:13hPace5.19Cat.M45
- 195LOS Urrieles175th M · 39th M23Time8:53:01hPace5.18Cat.M23
- 196Run04 Gijon176th M · 4th M55Time8:53:03hPace5.18Cat.M55
- 197Astur Vertical177th MTime8:53:20hPace5.17
- 198Cutrifera Trail Running178th M · 37th M40Time8:53:27hPace5.17Cat.M40
- 199179th M · 38th M40Time8:53:29hPace5.17Cat.M40
- 200A.D. SIN Fronteras180th M · 22nd M45Time8:55:07hPace5.16Cat.M45
Showing ranks 151–200 of 335